sensor_id;sensor_type;location;lat;lon;timestamp;P1;durP1;ratioP1;P2;durP2;ratioP2
75377;SDS011;63959;51.960;5.886;2023-05-10T00:00:03;106.18;;;23.52;;
75377;SDS011;63959;51.960;5.886;2023-05-10T00:02:38;26.73;;;11.43;;
75377;SDS011;63959;51.960;5.886;2023-05-10T00:05:08;28.27;;;11.05;;
75377;SDS011;63959;51.960;5.886;2023-05-10T00:07:39;67.60;;;17.25;;
75377;SDS011;63959;51.960;5.886;2023-05-10T00:10:10;32.33;;;13.23;;
75377;SDS011;63959;51.960;5.886;2023-05-10T00:12:39;43.17;;;15.48;;
75377;SDS011;63959;51.960;5.886;2023-05-10T00:15:08;73.95;;;18.70;;
75377;SDS011;63959;51.960;5.886;2023-05-10T00:17:37;39.78;;;14.90;;
75377;SDS011;63959;51.960;5.886;2023-05-10T00:20:06;47.88;;;16.73;;
75377;SDS011;63959;51.960;5.886;2023-05-10T00:22:35;69.80;;;24.40;;
75377;SDS011;63959;51.960;5.886;2023-05-10T00:25:07;42.75;;;17.33;;
75377;SDS011;63959;51.960;5.886;2023-05-10T00:27:36;40.88;;;15.85;;
75377;SDS011;63959;51.960;5.886;2023-05-10T00:30:05;126.40;;;26.42;;
75377;SDS011;63959;51.960;5.886;2023-05-10T00:32:34;45.63;;;17.52;;
75377;SDS011;63959;51.960;5.886;2023-05-10T00:35:04;49.10;;;19.10;;
75377;SDS011;63959;51.960;5.886;2023-05-10T00:37:33;46.38;;;18.83;;
75377;SDS011;63959;51.960;5.886;2023-05-10T00:40:01;44.30;;;18.65;;
75377;SDS011;63959;51.960;5.886;2023-05-10T00:42:33;46.05;;;15.18;;
75377;SDS011;63959;51.960;5.886;2023-05-10T00:45:02;71.90;;;20.40;;
75377;SDS011;63959;51.960;5.886;2023-05-10T00:47:30;33.17;;;13.35;;
75377;SDS011;63959;51.960;5.886;2023-05-10T00:49:59;49.97;;;18.20;;
75377;SDS011;63959;51.960;5.886;2023-05-10T00:52:28;47.67;;;17.88;;
75377;SDS011;63959;51.960;5.886;2023-05-10T00:54:58;49.15;;;19.38;;
75377;SDS011;63959;51.960;5.886;2023-05-10T00:57:26;88.68;;;20.38;;
75377;SDS011;63959;51.960;5.886;2023-05-10T00:59:58;88.30;;;22.10;;
75377;SDS011;63959;51.960;5.886;2023-05-10T01:02:27;85.88;;;18.45;;
75377;SDS011;63959;51.960;5.886;2023-05-10T01:04:56;51.10;;;18.27;;
75377;SDS011;63959;51.960;5.886;2023-05-10T01:07:25;40.95;;;15.60;;
75377;SDS011;63959;51.960;5.886;2023-05-10T01:09:53;44.47;;;17.50;;
75377;SDS011;63959;51.960;5.886;2023-05-10T01:12:22;69.47;;;19.80;;
75377;SDS011;63959;51.960;5.886;2023-05-10T01:14:51;36.42;;;15.02;;
75377;SDS011;63959;51.960;5.886;2023-05-10T01:17:23;49.10;;;19.15;;
75377;SDS011;63959;51.960;5.886;2023-05-10T01:19:51;49.90;;;19.15;;
75377;SDS011;63959;51.960;5.886;2023-05-10T01:22:33;53.55;;;19.90;;
75377;SDS011;63959;51.960;5.886;2023-05-10T01:25:13;46.78;;;17.42;;
75377;SDS011;63959;51.960;5.886;2023-05-10T01:33:26;49.60;;;18.90;;
75377;SDS011;63959;51.960;5.886;2023-05-10T01:35:59;84.55;;;26.13;;
75377;SDS011;63959;51.960;5.886;2023-05-10T01:38:31;75.18;;;22.27;;
75377;SDS011;63959;51.960;5.886;2023-05-10T01:41:03;55.33;;;19.58;;
75377;SDS011;63959;51.960;5.886;2023-05-10T01:43:37;47.25;;;18.98;;
75377;SDS011;63959;51.960;5.886;2023-05-10T01:46:10;38.28;;;14.90;;
75377;SDS011;63959;51.960;5.886;2023-05-10T01:48:46;59.92;;;20.23;;
75377;SDS011;63959;51.960;5.886;2023-05-10T01:51:16;38.80;;;15.43;;
75377;SDS011;63959;51.960;5.886;2023-05-10T01:53:45;37.53;;;13.98;;
75377;SDS011;63959;51.960;5.886;2023-05-10T01:56:15;82.22;;;28.10;;
75377;SDS011;63959;51.960;5.886;2023-05-10T01:58:45;47.33;;;17.60;;
75377;SDS011;63959;51.960;5.886;2023-05-10T02:01:15;38.88;;;15.02;;
75377;SDS011;63959;51.960;5.886;2023-05-10T02:03:47;39.22;;;14.73;;
75377;SDS011;63959;51.960;5.886;2023-05-10T02:06:16;53.60;;;15.32;;
75377;SDS011;63959;51.960;5.886;2023-05-10T02:08:46;41.30;;;15.38;;
75377;SDS011;63959;51.960;5.886;2023-05-10T02:11:16;59.40;;;21.58;;
75377;SDS011;63959;51.960;5.886;2023-05-10T02:13:47;61.33;;;20.20;;
75377;SDS011;63959;51.960;5.886;2023-05-10T02:16:17;50.03;;;17.98;;
75377;SDS011;63959;51.960;5.886;2023-05-10T02:18:49;35.60;;;13.13;;
75377;SDS011;63959;51.960;5.886;2023-05-10T02:21:19;46.15;;;16.77;;
75377;SDS011;63959;51.960;5.886;2023-05-10T02:23:48;71.93;;;18.98;;
75377;SDS011;63959;51.960;5.886;2023-05-10T02:26:18;52.38;;;17.10;;
75377;SDS011;63959;51.960;5.886;2023-05-10T02:28:49;47.53;;;16.52;;
75377;SDS011;63959;51.960;5.886;2023-05-10T02:31:18;113.25;;;25.00;;
75377;SDS011;63959;51.960;5.886;2023-05-10T02:33:49;42.22;;;14.98;;
75377;SDS011;63959;51.960;5.886;2023-05-10T02:36:19;46.17;;;14.23;;
75377;SDS011;63959;51.960;5.886;2023-05-10T02:38:49;120.45;;;28.10;;
75377;SDS011;63959;51.960;5.886;2023-05-10T02:41:18;92.63;;;25.77;;
75377;SDS011;63959;51.960;5.886;2023-05-10T02:43:48;163.43;;;28.98;;
75377;SDS011;63959;51.960;5.886;2023-05-10T02:46:17;57.35;;;19.83;;
75377;SDS011;63959;51.960;5.886;2023-05-10T02:48:46;98.15;;;25.75;;
75377;SDS011;63959;51.960;5.886;2023-05-10T02:51:18;93.30;;;27.08;;
75377;SDS011;63959;51.960;5.886;2023-05-10T02:53:47;78.90;;;26.13;;
75377;SDS011;63959;51.960;5.886;2023-05-10T02:56:20;56.75;;;18.95;;
75377;SDS011;63959;51.960;5.886;2023-05-10T02:58:51;74.80;;;20.08;;
75377;SDS011;63959;51.960;5.886;2023-05-10T03:01:20;52.30;;;19.67;;
75377;SDS011;63959;51.960;5.886;2023-05-10T03:03:49;51.35;;;19.10;;
75377;SDS011;63959;51.960;5.886;2023-05-10T03:06:20;73.82;;;25.65;;
75377;SDS011;63959;51.960;5.886;2023-05-10T03:08:49;43.45;;;16.75;;
75377;SDS011;63959;51.960;5.886;2023-05-10T03:11:23;100.30;;;31.35;;
75377;SDS011;63959;51.960;5.886;2023-05-10T03:14:04;75.18;;;25.98;;
75377;SDS011;63959;51.960;5.886;2023-05-10T03:16:46;50.83;;;19.42;;
75377;SDS011;63959;51.960;5.886;2023-05-10T03:19:16;112.80;;;32.33;;
75377;SDS011;63959;51.960;5.886;2023-05-10T03:21:49;59.03;;;22.50;;
75377;SDS011;63959;51.960;5.886;2023-05-10T03:24:20;77.47;;;26.98;;
75377;SDS011;63959;51.960;5.886;2023-05-10T03:26:49;50.25;;;18.35;;
75377;SDS011;63959;51.960;5.886;2023-05-10T03:29:18;55.78;;;20.60;;
75377;SDS011;63959;51.960;5.886;2023-05-10T03:31:47;43.58;;;17.27;;
75377;SDS011;63959;51.960;5.886;2023-05-10T03:34:16;66.57;;;20.10;;
75377;SDS011;63959;51.960;5.886;2023-05-10T03:36:44;62.55;;;22.85;;
75377;SDS011;63959;51.960;5.886;2023-05-10T03:39:16;42.60;;;16.80;;
75377;SDS011;63959;51.960;5.886;2023-05-10T03:41:50;53.00;;;17.85;;
75377;SDS011;63959;51.960;5.886;2023-05-10T03:44:18;82.53;;;28.90;;
75377;SDS011;63959;51.960;5.886;2023-05-10T03:46:47;98.40;;;26.52;;
75377;SDS011;63959;51.960;5.886;2023-05-10T03:49:16;56.97;;;21.70;;
75377;SDS011;63959;51.960;5.886;2023-05-10T03:51:44;106.25;;;29.25;;
75377;SDS011;63959;51.960;5.886;2023-05-10T03:54:16;49.80;;;18.83;;
75377;SDS011;63959;51.960;5.886;2023-05-10T03:56:45;65.82;;;22.13;;
75377;SDS011;63959;51.960;5.886;2023-05-10T03:59:15;75.15;;;25.50;;
75377;SDS011;63959;51.960;5.886;2023-05-10T04:01:44;75.20;;;26.52;;
75377;SDS011;63959;51.960;5.886;2023-05-10T04:04:13;51.15;;;21.40;;
75377;SDS011;63959;51.960;5.886;2023-05-10T04:06:43;55.85;;;20.92;;
75377;SDS011;63959;51.960;5.886;2023-05-10T04:09:13;82.68;;;29.17;;
75377;SDS011;63959;51.960;5.886;2023-05-10T04:11:44;76.35;;;27.65;;
75377;SDS011;63959;51.960;5.886;2023-05-10T04:14:13;113.47;;;30.73;;
75377;SDS011;63959;51.960;5.886;2023-05-10T04:16:42;83.65;;;26.58;;
75377;SDS011;63959;51.960;5.886;2023-05-10T04:19:10;100.93;;;27.25;;
75377;SDS011;63959;51.960;5.886;2023-05-10T04:21:39;45.50;;;17.40;;
75377;SDS011;63959;51.960;5.886;2023-05-10T04:24:08;48.47;;;18.35;;
75377;SDS011;63959;51.960;5.886;2023-05-10T04:26:36;49.15;;;19.00;;
75377;SDS011;63959;51.960;5.886;2023-05-10T04:29:08;57.80;;;21.67;;
75377;SDS011;63959;51.960;5.886;2023-05-10T04:31:36;75.22;;;25.25;;
75377;SDS011;63959;51.960;5.886;2023-05-10T04:34:05;43.03;;;17.67;;
75377;SDS011;63959;51.960;5.886;2023-05-10T04:36:34;46.25;;;15.93;;
75377;SDS011;63959;51.960;5.886;2023-05-10T04:39:03;58.88;;;18.80;;
75377;SDS011;63959;51.960;5.886;2023-05-10T04:41:31;66.32;;;24.65;;
75377;SDS011;63959;51.960;5.886;2023-05-10T04:44:00;43.10;;;17.30;;
75377;SDS011;63959;51.960;5.886;2023-05-10T04:46:31;44.95;;;16.70;;
75377;SDS011;63959;51.960;5.886;2023-05-10T04:49:00;45.53;;;16.33;;
75377;SDS011;63959;51.960;5.886;2023-05-10T04:51:29;44.65;;;16.00;;
75377;SDS011;63959;51.960;5.886;2023-05-10T04:53:57;37.80;;;14.48;;
75377;SDS011;63959;51.960;5.886;2023-05-10T04:56:26;44.40;;;15.68;;
75377;SDS011;63959;51.960;5.886;2023-05-10T04:58:55;51.00;;;17.52;;
75377;SDS011;63959;51.960;5.886;2023-05-10T05:01:23;56.50;;;20.92;;
75377;SDS011;63959;51.960;5.886;2023-05-10T05:03:55;47.65;;;18.13;;
75377;SDS011;63959;51.960;5.886;2023-05-10T05:06:23;70.88;;;22.08;;
75377;SDS011;63959;51.960;5.886;2023-05-10T05:08:53;54.47;;;18.33;;
75377;SDS011;63959;51.960;5.886;2023-05-10T05:11:21;63.35;;;21.27;;
75377;SDS011;63959;51.960;5.886;2023-05-10T05:13:51;85.55;;;23.58;;
75377;SDS011;63959;51.960;5.886;2023-05-10T05:16:19;41.13;;;15.93;;
75377;SDS011;63959;51.960;5.886;2023-05-10T05:18:48;42.17;;;16.10;;
75377;SDS011;63959;51.960;5.886;2023-05-10T05:21:19;82.88;;;27.52;;
75377;SDS011;63959;51.960;5.886;2023-05-10T05:23:49;49.60;;;17.23;;
75377;SDS011;63959;51.960;5.886;2023-05-10T05:26:18;44.03;;;14.52;;
75377;SDS011;63959;51.960;5.886;2023-05-10T05:28:46;43.50;;;15.73;;
75377;SDS011;63959;51.960;5.886;2023-05-10T05:31:18;56.85;;;19.95;;
75377;SDS011;63959;51.960;5.886;2023-05-10T05:33:46;58.30;;;20.42;;
75377;SDS011;63959;51.960;5.886;2023-05-10T05:36:15;53.28;;;20.13;;
75377;SDS011;63959;51.960;5.886;2023-05-10T05:38:46;41.10;;;15.50;;
75377;SDS011;63959;51.960;5.886;2023-05-10T05:41:15;54.25;;;18.20;;
75377;SDS011;63959;51.960;5.886;2023-05-10T05:43:44;52.58;;;18.15;;
75377;SDS011;63959;51.960;5.886;2023-05-10T05:46:12;43.85;;;15.73;;
75377;SDS011;63959;51.960;5.886;2023-05-10T05:48:41;59.47;;;19.17;;
75377;SDS011;63959;51.960;5.886;2023-05-10T05:51:10;53.88;;;19.45;;
75377;SDS011;63959;51.960;5.886;2023-05-10T08:24:35;40.42;;;15.55;;
75377;SDS011;63959;51.960;5.886;2023-05-10T08:27:04;41.40;;;17.73;;
75377;SDS011;63959;51.960;5.886;2023-05-10T08:29:33;44.78;;;19.10;;
75377;SDS011;63959;51.960;5.886;2023-05-10T08:32:03;44.55;;;19.30;;
75377;SDS011;63959;51.960;5.886;2023-05-10T08:34:31;36.53;;;16.77;;
75377;SDS011;63959;51.960;5.886;2023-05-10T08:37:00;33.90;;;15.88;;
75377;SDS011;63959;51.960;5.886;2023-05-10T08:39:29;38.58;;;15.63;;
75377;SDS011;63959;51.960;5.886;2023-05-10T08:42:01;29.75;;;13.70;;
75377;SDS011;63959;51.960;5.886;2023-05-10T08:44:30;35.10;;;13.85;;
75377;SDS011;63959;51.960;5.886;2023-05-10T08:47:00;27.73;;;12.52;;
75377;SDS011;63959;51.960;5.886;2023-05-10T08:49:31;37.35;;;16.15;;
75377;SDS011;63959;51.960;5.886;2023-05-10T08:52:02;30.10;;;12.80;;
75377;SDS011;63959;51.960;5.886;2023-05-10T08:54:32;24.02;;;10.70;;
75377;SDS011;63959;51.960;5.886;2023-05-10T08:57:04;30.83;;;13.90;;
75377;SDS011;63959;51.960;5.886;2023-05-10T08:59:33;25.15;;;11.15;;
75377;SDS011;63959;51.960;5.886;2023-05-10T09:02:03;23.40;;;10.07;;
75377;SDS011;63959;51.960;5.886;2023-05-10T09:04:33;20.58;;;7.93;;
75377;SDS011;63959;51.960;5.886;2023-05-10T09:07:01;16.85;;;8.05;;
75377;SDS011;63959;51.960;5.886;2023-05-10T09:09:30;18.60;;;8.45;;
75377;SDS011;63959;51.960;5.886;2023-05-10T09:11:59;15.27;;;7.13;;
75377;SDS011;63959;51.960;5.886;2023-05-10T09:14:30;16.60;;;7.75;;
75377;SDS011;63959;51.960;5.886;2023-05-10T09:17:02;12.65;;;6.50;;
75377;SDS011;63959;51.960;5.886;2023-05-10T09:19:31;16.15;;;7.25;;
75377;SDS011;63959;51.960;5.886;2023-05-10T09:21:59;15.18;;;7.20;;
75377;SDS011;63959;51.960;5.886;2023-05-10T09:24:29;12.25;;;5.80;;
75377;SDS011;63959;51.960;5.886;2023-05-10T09:26:57;13.68;;;6.00;;
75377;SDS011;63959;51.960;5.886;2023-05-10T09:29:26;11.95;;;5.35;;
75377;SDS011;63959;51.960;5.886;2023-05-10T09:32:09;15.40;;;7.65;;
75377;SDS011;63959;51.960;5.886;2023-05-10T09:34:38;8.73;;;4.75;;
75377;SDS011;63959;51.960;5.886;2023-05-10T09:37:07;11.48;;;5.43;;
75377;SDS011;63959;51.960;5.886;2023-05-10T09:39:36;10.98;;;4.63;;
75377;SDS011;63959;51.960;5.886;2023-05-10T09:42:07;12.35;;;6.00;;
75377;SDS011;63959;51.960;5.886;2023-05-10T09:44:36;11.23;;;5.63;;
75377;SDS011;63959;51.960;5.886;2023-05-10T09:47:09;10.75;;;5.22;;
75377;SDS011;63959;51.960;5.886;2023-05-10T09:49:37;12.55;;;5.03;;
75377;SDS011;63959;51.960;5.886;2023-05-10T09:52:06;10.23;;;4.68;;
75377;SDS011;63959;51.960;5.886;2023-05-10T09:54:36;11.82;;;5.05;;
75377;SDS011;63959;51.960;5.886;2023-05-10T09:57:04;9.95;;;5.32;;
75377;SDS011;63959;51.960;5.886;2023-05-10T09:59:33;9.23;;;4.18;;
75377;SDS011;63959;51.960;5.886;2023-05-10T10:02:01;13.10;;;5.65;;
75377;SDS011;63959;51.960;5.886;2023-05-10T10:04:37;12.43;;;5.88;;
75377;SDS011;63959;51.960;5.886;2023-05-10T10:07:07;11.32;;;5.15;;
75377;SDS011;63959;51.960;5.886;2023-05-10T10:09:36;11.45;;;5.38;;
75377;SDS011;63959;51.960;5.886;2023-05-10T10:12:04;12.73;;;6.32;;
75377;SDS011;63959;51.960;5.886;2023-05-10T10:14:34;11.85;;;5.97;;
75377;SDS011;63959;51.960;5.886;2023-05-10T10:17:02;11.48;;;5.53;;
75377;SDS011;63959;51.960;5.886;2023-05-10T10:19:35;12.18;;;5.80;;
75377;SDS011;63959;51.960;5.886;2023-05-10T10:22:04;12.30;;;5.93;;
75377;SDS011;63959;51.960;5.886;2023-05-10T10:24:33;8.60;;;4.38;;
75377;SDS011;63959;51.960;5.886;2023-05-10T10:27:04;8.88;;;4.35;;
75377;SDS011;63959;51.960;5.886;2023-05-10T10:29:36;10.77;;;4.78;;
75377;SDS011;63959;51.960;5.886;2023-05-10T10:32:09;10.82;;;4.90;;
75377;SDS011;63959;51.960;5.886;2023-05-10T10:34:42;12.40;;;5.60;;
75377;SDS011;63959;51.960;5.886;2023-05-10T10:37:11;12.65;;;6.53;;
75377;SDS011;63959;51.960;5.886;2023-05-10T10:39:40;12.25;;;5.68;;
75377;SDS011;63959;51.960;5.886;2023-05-10T10:42:08;14.63;;;6.47;;
75377;SDS011;63959;51.960;5.886;2023-05-10T10:44:37;11.10;;;5.45;;
75377;SDS011;63959;51.960;5.886;2023-05-10T10:47:21;11.00;;;4.97;;
75377;SDS011;63959;51.960;5.886;2023-05-10T10:50:07;12.15;;;5.55;;
75377;SDS011;63959;51.960;5.886;2023-05-10T10:52:38;15.85;;;5.82;;
75377;SDS011;63959;51.960;5.886;2023-05-10T10:55:08;11.73;;;5.15;;
75377;SDS011;63959;51.960;5.886;2023-05-10T10:57:44;14.80;;;6.72;;
75377;SDS011;63959;51.960;5.886;2023-05-10T11:00:26;17.35;;;7.93;;
75377;SDS011;63959;51.960;5.886;2023-05-10T11:02:56;11.40;;;4.72;;
75377;SDS011;63959;51.960;5.886;2023-05-10T11:08:18;19.65;;;9.35;;
75377;SDS011;63959;51.960;5.886;2023-05-10T11:10:51;12.95;;;6.68;;
75377;SDS011;63959;51.960;5.886;2023-05-10T11:13:27;13.98;;;6.63;;
75377;SDS011;63959;51.960;5.886;2023-05-10T11:15:56;12.05;;;5.10;;
75377;SDS011;63959;51.960;5.886;2023-05-10T11:18:26;13.10;;;6.93;;
75377;SDS011;63959;51.960;5.886;2023-05-10T11:20:56;16.90;;;8.68;;
75377;SDS011;63959;51.960;5.886;2023-05-10T11:23:31;12.23;;;6.35;;
75377;SDS011;63959;51.960;5.886;2023-05-10T11:26:00;12.38;;;6.80;;
75377;SDS011;63959;51.960;5.886;2023-05-10T11:28:30;16.88;;;9.43;;
75377;SDS011;63959;51.960;5.886;2023-05-10T11:30:59;13.60;;;6.68;;
75377;SDS011;63959;51.960;5.886;2023-05-10T11:33:28;12.18;;;6.65;;
75377;SDS011;63959;51.960;5.886;2023-05-10T11:35:57;13.10;;;7.25;;
75377;SDS011;63959;51.960;5.886;2023-05-10T11:38:25;12.07;;;6.70;;
75377;SDS011;63959;51.960;5.886;2023-05-10T11:40:57;12.65;;;5.82;;
75377;SDS011;63959;51.960;5.886;2023-05-10T11:43:25;12.45;;;5.80;;
75377;SDS011;63959;51.960;5.886;2023-05-10T11:45:56;15.15;;;7.45;;
75377;SDS011;63959;51.960;5.886;2023-05-10T11:48:25;13.23;;;6.70;;
75377;SDS011;63959;51.960;5.886;2023-05-10T11:50:53;12.73;;;6.68;;
75377;SDS011;63959;51.960;5.886;2023-05-10T11:53:24;17.17;;;8.75;;
75377;SDS011;63959;51.960;5.886;2023-05-10T11:55:54;11.98;;;6.60;;
75377;SDS011;63959;51.960;5.886;2023-05-10T11:58:26;13.27;;;7.07;;
75377;SDS011;63959;51.960;5.886;2023-05-10T12:00:54;13.40;;;6.45;;
75377;SDS011;63959;51.960;5.886;2023-05-10T12:03:23;11.90;;;5.95;;
75377;SDS011;63959;51.960;5.886;2023-05-10T12:05:52;9.93;;;5.05;;
75377;SDS011;63959;51.960;5.886;2023-05-10T12:08:21;11.80;;;6.05;;
75377;SDS011;63959;51.960;5.886;2023-05-10T12:10:50;13.20;;;7.07;;
75377;SDS011;63959;51.960;5.886;2023-05-10T12:13:19;15.75;;;6.60;;
75377;SDS011;63959;51.960;5.886;2023-05-10T12:15:51;9.38;;;5.50;;
75377;SDS011;63959;51.960;5.886;2023-05-10T12:18:22;8.15;;;4.18;;
75377;SDS011;63959;51.960;5.886;2023-05-10T12:20:51;8.52;;;4.47;;
75377;SDS011;63959;51.960;5.886;2023-05-10T12:23:20;10.45;;;5.18;;
75377;SDS011;63959;51.960;5.886;2023-05-10T12:25:49;13.10;;;6.15;;
75377;SDS011;63959;51.960;5.886;2023-05-10T12:28:19;10.30;;;4.10;;
75377;SDS011;63959;51.960;5.886;2023-05-10T12:30:52;9.45;;;4.78;;
75377;SDS011;63959;51.960;5.886;2023-05-10T12:33:21;9.57;;;4.30;;
75377;SDS011;63959;51.960;5.886;2023-05-10T12:35:50;9.23;;;4.18;;
75377;SDS011;63959;51.960;5.886;2023-05-10T12:38:26;13.13;;;6.30;;
75377;SDS011;63959;51.960;5.886;2023-05-10T12:40:56;8.73;;;4.10;;
75377;SDS011;63959;51.960;5.886;2023-05-10T12:43:25;8.93;;;4.15;;
75377;SDS011;63959;51.960;5.886;2023-05-10T12:45:56;9.07;;;4.07;;
75377;SDS011;63959;51.960;5.886;2023-05-10T12:48:25;8.05;;;3.95;;
75377;SDS011;63959;51.960;5.886;2023-05-10T12:50:54;10.48;;;4.25;;
75377;SDS011;63959;51.960;5.886;2023-05-10T12:53:22;9.93;;;4.90;;
75377;SDS011;63959;51.960;5.886;2023-05-10T12:55:51;9.90;;;5.28;;
75377;SDS011;63959;51.960;5.886;2023-05-10T12:58:20;9.68;;;4.60;;
75377;SDS011;63959;51.960;5.886;2023-05-10T13:00:50;8.63;;;3.85;;
75377;SDS011;63959;51.960;5.886;2023-05-10T13:03:24;10.55;;;5.05;;
75377;SDS011;63959;51.960;5.886;2023-05-10T13:05:53;11.57;;;5.30;;
75377;SDS011;63959;51.960;5.886;2023-05-10T13:08:21;10.57;;;5.32;;
75377;SDS011;63959;51.960;5.886;2023-05-10T13:10:50;8.65;;;4.32;;
75377;SDS011;63959;51.960;5.886;2023-05-10T13:13:19;11.10;;;5.07;;
75377;SDS011;63959;51.960;5.886;2023-05-10T13:15:47;10.45;;;4.97;;
75377;SDS011;63959;51.960;5.886;2023-05-10T13:18:16;9.70;;;4.53;;
75377;SDS011;63959;51.960;5.886;2023-05-10T13:20:47;9.25;;;4.70;;
75377;SDS011;63959;51.960;5.886;2023-05-10T13:23:16;9.88;;;5.10;;
75377;SDS011;63959;51.960;5.886;2023-05-10T13:25:44;13.40;;;6.25;;
75377;SDS011;63959;51.960;5.886;2023-05-10T13:28:13;9.45;;;4.95;;
75377;SDS011;63959;51.960;5.886;2023-05-10T13:30:42;6.95;;;3.38;;
75377;SDS011;63959;51.960;5.886;2023-05-10T13:33:10;6.78;;;3.25;;
75377;SDS011;63959;51.960;5.886;2023-05-10T13:35:39;7.25;;;3.15;;
75377;SDS011;63959;51.960;5.886;2023-05-10T13:38:10;6.65;;;3.08;;
75377;SDS011;63959;51.960;5.886;2023-05-10T13:40:39;9.82;;;4.45;;
75377;SDS011;63959;51.960;5.886;2023-05-10T13:43:07;12.73;;;6.78;;
75377;SDS011;63959;51.960;5.886;2023-05-10T13:45:36;9.98;;;5.65;;
75377;SDS011;63959;51.960;5.886;2023-05-10T13:48:05;11.63;;;6.18;;
75377;SDS011;63959;51.960;5.886;2023-05-10T13:50:33;8.30;;;5.88;;
75377;SDS011;63959;51.960;5.886;2023-05-10T13:53:02;9.88;;;5.93;;
75377;SDS011;63959;51.960;5.886;2023-05-10T13:55:33;10.55;;;6.63;;
75377;SDS011;63959;51.960;5.886;2023-05-10T13:58:02;11.93;;;7.88;;
75377;SDS011;63959;51.960;5.886;2023-05-10T14:00:30;11.57;;;7.53;;
75377;SDS011;63959;51.960;5.886;2023-05-10T14:02:59;9.93;;;6.93;;
75377;SDS011;63959;51.960;5.886;2023-05-10T14:05:28;14.00;;;9.80;;
75377;SDS011;63959;51.960;5.886;2023-05-10T14:07:56;14.02;;;8.55;;
75377;SDS011;63959;51.960;5.886;2023-05-10T14:10:25;10.75;;;6.63;;
75377;SDS011;63959;51.960;5.886;2023-05-10T14:12:56;11.98;;;8.00;;
75377;SDS011;63959;51.960;5.886;2023-05-10T14:15:25;12.35;;;7.65;;
75377;SDS011;63959;51.960;5.886;2023-05-10T14:17:53;10.55;;;6.65;;
75377;SDS011;63959;51.960;5.886;2023-05-10T14:20:22;12.07;;;6.95;;
75377;SDS011;63959;51.960;5.886;2023-05-10T14:22:51;11.95;;;7.88;;
75377;SDS011;63959;51.960;5.886;2023-05-10T14:25:19;15.48;;;10.30;;
75377;SDS011;63959;51.960;5.886;2023-05-10T14:27:48;11.88;;;8.00;;
75377;SDS011;63959;51.960;5.886;2023-05-10T14:30:19;17.00;;;10.80;;
75377;SDS011;63959;51.960;5.886;2023-05-10T14:32:48;11.02;;;7.18;;
75377;SDS011;63959;51.960;5.886;2023-05-10T14:35:19;9.15;;;5.90;;
75377;SDS011;63959;51.960;5.886;2023-05-10T14:37:48;11.13;;;7.55;;
75377;SDS011;63959;51.960;5.886;2023-05-10T14:40:16;10.63;;;7.00;;
75377;SDS011;63959;51.960;5.886;2023-05-10T14:42:45;11.32;;;7.15;;
75377;SDS011;63959;51.960;5.886;2023-05-10T14:45:14;8.13;;;5.03;;
75377;SDS011;63959;51.960;5.886;2023-05-10T14:47:45;6.45;;;3.63;;
75377;SDS011;63959;51.960;5.886;2023-05-10T14:50:13;6.32;;;3.75;;
75377;SDS011;63959;51.960;5.886;2023-05-10T14:52:43;6.50;;;3.78;;
75377;SDS011;63959;51.960;5.886;2023-05-10T14:55:12;7.03;;;3.67;;
75377;SDS011;63959;51.960;5.886;2023-05-10T14:57:41;6.95;;;3.60;;
75377;SDS011;63959;51.960;5.886;2023-05-10T15:00:10;7.15;;;3.45;;
75377;SDS011;63959;51.960;5.886;2023-05-10T15:02:41;5.78;;;2.72;;
75377;SDS011;63959;51.960;5.886;2023-05-10T15:05:12;5.32;;;2.78;;
75377;SDS011;63959;51.960;5.886;2023-05-10T15:07:41;6.80;;;3.55;;
75377;SDS011;63959;51.960;5.886;2023-05-10T15:10:10;6.15;;;3.08;;
75377;SDS011;63959;51.960;5.886;2023-05-10T15:12:39;6.03;;;2.90;;
75377;SDS011;63959;51.960;5.886;2023-05-10T15:15:08;6.20;;;2.75;;
75377;SDS011;63959;51.960;5.886;2023-05-10T15:17:36;4.43;;;2.40;;
75377;SDS011;63959;51.960;5.886;2023-05-10T15:20:06;4.10;;;1.92;;
75377;SDS011;63959;51.960;5.886;2023-05-10T15:22:37;5.15;;;2.00;;
75377;SDS011;63959;51.960;5.886;2023-05-10T15:25:07;5.25;;;2.50;;
75377;SDS011;63959;51.960;5.886;2023-05-10T15:27:35;4.75;;;1.88;;
75377;SDS011;63959;51.960;5.886;2023-05-10T15:30:05;4.90;;;1.80;;
75377;SDS011;63959;51.960;5.886;2023-05-10T15:32:34;4.10;;;1.63;;
75377;SDS011;63959;51.960;5.886;2023-05-10T15:35:02;6.13;;;2.35;;
75377;SDS011;63959;51.960;5.886;2023-05-10T15:37:31;3.85;;;1.58;;
75377;SDS011;63959;51.960;5.886;2023-05-10T15:40:03;5.15;;;1.77;;
75377;SDS011;63959;51.960;5.886;2023-05-10T15:42:32;5.10;;;2.28;;
75377;SDS011;63959;51.960;5.886;2023-05-10T15:45:00;3.80;;;1.60;;
75377;SDS011;63959;51.960;5.886;2023-05-10T15:47:29;3.88;;;1.40;;
75377;SDS011;63959;51.960;5.886;2023-05-10T15:49:58;5.22;;;2.28;;
75377;SDS011;63959;51.960;5.886;2023-05-10T15:52:27;4.70;;;2.00;;
75377;SDS011;63959;51.960;5.886;2023-05-10T15:54:56;5.05;;;1.70;;
75377;SDS011;63959;51.960;5.886;2023-05-10T15:57:27;3.20;;;1.38;;
75377;SDS011;63959;51.960;5.886;2023-05-10T15:59:55;3.83;;;1.40;;
75377;SDS011;63959;51.960;5.886;2023-05-10T16:02:24;5.25;;;1.80;;
75377;SDS011;63959;51.960;5.886;2023-05-10T16:04:53;4.38;;;1.63;;
75377;SDS011;63959;51.960;5.886;2023-05-10T16:07:22;3.75;;;1.50;;
75377;SDS011;63959;51.960;5.886;2023-05-10T16:09:50;4.70;;;2.08;;
75377;SDS011;63959;51.960;5.886;2023-05-10T16:12:19;5.28;;;1.88;;
75377;SDS011;63959;51.960;5.886;2023-05-10T16:14:50;6.95;;;2.67;;
75377;SDS011;63959;51.960;5.886;2023-05-10T16:17:19;3.90;;;1.65;;
75377;SDS011;63959;51.960;5.886;2023-05-10T16:19:48;4.10;;;1.73;;
75377;SDS011;63959;51.960;5.886;2023-05-10T16:22:16;4.10;;;1.52;;
75377;SDS011;63959;51.960;5.886;2023-05-10T16:24:46;4.03;;;1.90;;
75377;SDS011;63959;51.960;5.886;2023-05-10T16:27:18;5.32;;;2.13;;
75377;SDS011;63959;51.960;5.886;2023-05-10T16:29:46;3.60;;;1.40;;
75377;SDS011;63959;51.960;5.886;2023-05-10T16:32:18;3.92;;;1.77;;
75377;SDS011;63959;51.960;5.886;2023-05-10T16:34:46;3.30;;;1.50;;
75377;SDS011;63959;51.960;5.886;2023-05-10T16:37:15;6.20;;;1.73;;
75377;SDS011;63959;51.960;5.886;2023-05-10T16:39:44;4.40;;;1.70;;
75377;SDS011;63959;51.960;5.886;2023-05-10T16:42:12;3.55;;;1.30;;
75377;SDS011;63959;51.960;5.886;2023-05-10T16:44:41;3.60;;;1.30;;
75377;SDS011;63959;51.960;5.886;2023-05-10T16:47:10;3.30;;;1.48;;
75377;SDS011;63959;51.960;5.886;2023-05-10T16:49:41;7.55;;;3.63;;
75377;SDS011;63959;51.960;5.886;2023-05-10T16:52:10;14.10;;;9.35;;
75377;SDS011;63959;51.960;5.886;2023-05-10T16:54:38;8.40;;;4.18;;
75377;SDS011;63959;51.960;5.886;2023-05-10T16:57:07;4.93;;;2.35;;
75377;SDS011;63959;51.960;5.886;2023-05-10T16:59:36;4.45;;;1.92;;
75377;SDS011;63959;51.960;5.886;2023-05-10T17:02:05;4.18;;;1.48;;
75377;SDS011;63959;51.960;5.886;2023-05-10T17:04:34;4.10;;;1.63;;
75377;SDS011;63959;51.960;5.886;2023-05-10T17:07:05;5.43;;;1.90;;
75377;SDS011;63959;51.960;5.886;2023-05-10T17:09:34;4.35;;;1.67;;
75377;SDS011;63959;51.960;5.886;2023-05-10T17:12:02;3.40;;;1.40;;
75377;SDS011;63959;51.960;5.886;2023-05-10T17:14:31;4.25;;;2.00;;
75377;SDS011;63959;51.960;5.886;2023-05-10T17:17:00;3.80;;;1.58;;
75377;SDS011;63959;51.960;5.886;2023-05-10T17:19:29;3.50;;;1.42;;
75377;SDS011;63959;51.960;5.886;2023-05-10T17:21:57;2.80;;;1.15;;
75377;SDS011;63959;51.960;5.886;2023-05-10T17:24:29;3.78;;;1.35;;